新千歳空港の過去48時間の天気

新千歳空港 (Sapporo/New Chitose)

現在時刻: 2/23 21:49 JST (2/23 12:49 UTC) 以下の時間は現地時間です。

過去48時間のMETAR気象情報
時間 風向 風速(m/s) 視程 気温(℃) 湿度(%) 気圧(hPa) 天気現象
23 21:30 西南西 5 10km以上 -1 64 1015
23 21:00 西南西 6 10km以上 -1 64 1015
23 20:30 西南西 5 10km以上 -1 74 1015
23 20:00 南西 3 10km以上 0 74 1014
23 19:30 西南西 4 10km以上 0 80 1014
23 19:00 西 5 8,000m 1 80 1014
23 18:47 西南西 6 5,000m 1 86 1013 弱いしゅう雪
23 18:35 南西 7 1,000m 0 100 1013 弱いしゅう雪
23 18:30 南西 8 1,000m 0 100 1013 弱いしゅう雪 あられ
23 18:24 5 1,400m 1 93 1013 弱いしゅう雪
23 18:19 5 2,300m 1 93 1013 弱いしゅう雪
23 18:00 7 3,200m 0 100 1013 弱いしゅう雪
23 17:47 6 1,500m 0 100 1013 弱いしゅう雪
23 17:37 南西 8 700m 0 100 1013 強いしゅう雪
23 17:30 南南西 11 500m 0 100 1013 しゅう雪
23 17:17 7 500m 0 100 1013 しゅう雪
23 17:00 7 200m 0 100 1013 強いしゅう雪
23 16:30 10 600m 1 86 1013 しゅう雪
23 16:17 11 1,400m 2 75 1013 弱いしゅう雪
23 16:05 南南東 9 4,900m 2 69 1013 弱いしゅう雪
23 16:00 南南東 8 10km以上 2 69 1013 弱いしゅう雪
23 15:30 南南東 8 10km以上 2 69 1013 弱いしゅう雪
23 15:00 南南東 10 7,000m 2 69 1013 弱いしゅう雪
23 14:30 南南東 10 10km以上 3 65 1013
23 14:00 南南東 9 10km以上 3 65 1013
23 13:30 南南東 9 10km以上 3 65 1014
23 13:00 10 10km以上 3 65 1014
23 12:30 10 10km以上 2 75 1014
23 12:00 9 10km以上 2 69 1015
23 11:30 9 10km以上 2 69 1015
23 11:00 9 10km以上 2 64 1016
23 10:30 8 10km以上 2 69 1016
23 10:00 6 10km以上 2 75 1016
23 09:30 南南西 3 10km以上 2 69 1016
23 09:00 北北西 2 10km以上 0 86 1017
23 08:30 2 10km以上 1 75 1017
23 08:00 南南東 3 10km以上 -1 86 1017
23 07:30 南南東 4 10km以上 -1 86 1017 周辺でしゅう雨
23 07:00 4 10km以上 -1 86 1017 周辺でしゅう雨
23 06:30 7 8,000m -1 93 1017 弱いしゅう雪
23 06:00 5 3,200m -1 93 1017 弱いしゅう雪
23 05:47 5 3,200m -1 93 1017 弱いしゅう雪
23 05:30 4 2,500m -1 93 1017 弱いしゅう雪
23 05:16 5 900m -1 93 1017 しゅう雪
23 05:00 南南西 5 1,200m -1 100 1017 弱いしゅう雪
23 04:30 8 300m -1 93 1017 しゅう雪
23 04:00 南南西 6 700m -1 93 1017 しゅう雪
23 03:48 8 900m -1 86 1017 しゅう雪
23 03:30 南南東 5 2,500m 0 69 1017 弱いしゅう雪
23 03:00 10 4,000m 0 74 1017 弱いしゅう雪
23 02:30 南南東 5 10km以上 -1 80 1017 弱いしゅう雪
23 02:00 南南東 5 8,000m 0 64 1017 弱いしゅう雪
23 01:30 南東 5 10km以上 -2 80 1017 弱いしゅう雪
23 01:00 東南東 4 10km以上 -3 86 1018 弱いしゅう雪
23 00:30 南東 4 10km以上 -3 93 1018
23 00:00 南東 3 10km以上 -4 100 1019 弱いしゅう雪
22 23:30 東南東 3 2,500m -3 93 1019 弱いしゅう雪
22 23:00 南東 4 2,500m -4 93 1019 弱いしゅう雪
22 22:30 南東 3 10km以上 -4 80 1019 弱いしゅう雪
22 22:00 南東 2 10km以上 -4 80 1020 弱いしゅう雪
22 21:30 東南東 3 10km以上 -4 80 1020
22 21:00 南南東 3 10km以上 -3 74 1020
22 20:30 東南東 4 10km以上 -5 74 1020
22 20:00 南東 2 10km以上 -4 68 1020
22 19:30 南東 3 10km以上 -4 74 1020
22 19:00 南東 3 10km以上 -3 68 1020
22 18:30 南南東 4 10km以上 -3 68 1019 弱いしゅう雪
22 18:00 南南東 4 10km以上 -3 68 1019
22 17:30 5 10km以上 -3 63 1019
22 17:00 5 10km以上 -3 54 1019
22 16:30 7 10km以上 -2 50 1019
22 16:00 6 10km以上 -2 46 1019
22 15:30 7 10km以上 -1 43 1019
22 15:00 南南西 6 10km以上 -1 43 1018
22 14:30 南南西 6 10km以上 -1 40 1018
22 09:30 4 10km以上 -7 62 1020
22 09:00 2 10km以上 -10 67 1020
22 08:30 2 10km以上 -13 72 1020
22 08:00 2 10km以上 -17 77 1020
22 07:30 南南西 2 10km以上 -19 77 1020
22 07:00 2 10km以上 -20 77 1020
22 06:30 不定 1 10km以上 -21 84 1020
22 06:00 2 10km以上 -20 77 1019
22 05:30 不定 1 10km以上 -20 77 1019
22 05:00 1 10km以上 -19 77 1019
22 04:30 不定 1 10km以上 -19 84 1019
22 04:00 不定 1 10km以上 -21 77 1019
22 03:30 2 10km以上 -20 84 1019
22 03:00 不定 1 10km以上 -19 77 1019
22 02:30 不定 1 10km以上 -19 84 1019
22 02:00 1 10km以上 -19 92 1019
22 01:30 1 10km以上 -18 92 1018
22 01:00 南南東 1 10km以上 -17 92 1018
21 23:30 1 10km以上 -16 78 1017
21 22:30 不定 1 10km以上 -13 78 1017
21 22:00 不定 1 10km以上 -14 85 1017
RJCC 231230Z 24009KT 9999 FEW015 BKN170 M01/M07 Q1015 RMK 1ST015 6AC170 A3000
RJCC 231200Z 24012KT 9999 FEW015 BKN120 M01/M07 Q1015 RMK 1ST015 7AC120 A2999
RJCC 231130Z 24009KT 210V270 9999 FEW015 BKN120 M01/M05 Q1015 RMK 1ST015 7AC120 A2997
RJCC 231100Z 22006KT 190V250 9999 FEW015 BKN090 M00/M04 Q1014 RMK 1ST015 7AC090 A2996
RJCC 231030Z 25007KT 9999 FEW010 BKN045 M00/M03 Q1014 RMK 1ST010 7CU045 A2995
RJCC 231000Z 26010KT 210V280 8000 FEW006 BKN040 01/M02 Q1014 RMK 1ST006 7CU040 A2994
RJCC 230947Z 25011KT 210V270 5000 -SHSN FEW003 BKN006 BKN050 01/M01 Q1013 RMK 1ST003 5ST006 7CU050 A2993
RJCC 230935Z 22013KT 1000 R19R/2000N R19L/P2000N -SHSN VV003 00/M00 Q1013 RMK A2994
RJCC 230930Z 22015KT 1000 R19R/P2000N R19L/P2000N -SHSNGS VV003 00/M00 Q1013 RMK A2994 SNOW PELLETS
RJCC 230924Z 17010KT 1400 R19R/P2000N R19L/2000N -SHSN VV003 01/00 Q1013 RMK A2993
RJCC 230919Z 17010KT 2300 R19R/P2000N R19L/1600VP2000N -SHSN FEW004 BKN006 01/00 Q1013 RMK 1ST004 7ST006 A2993
RJCC 230900Z 17014KT 3200 -SHSN FEW004 BKN006 00/00 Q1013 RMK 1ST004 7ST006 A2993
RJCC 230847Z 17012KT 1500 R19R/1400VP2000N R19L/P2000N -SHSN FEW003 BKN006 00/00 Q1013 RMK 1ST003 7ST006 A2993
RJCC 230837Z 22016G26KT 0700 R19R/1200VP2000D R19L/2000U +SHSN VV003 00/M00 Q1013 RMK A2993
RJCC 230830Z 20022KT 0500 R19R/1500VP2000D R19L/2000D SHSN VV003 00/M00 Q1013
RJCC 230817Z 19013KT 0500 R19R/P2000N R19L/P2000N SHSN VV002 00/00 Q1013 RMK A2993
RJCC 230800Z 18013KT 0200 R19R/P2000N R19L/2000N +SHSN VV002 00/00 Q1013
RJCC 230730Z 18020KT 0600 R19R/P2000N R19L/P2000N SHSN VV004 01/M01 Q1013 RMK A2994
RJCC 230717Z 17021G31KT 1400 R19R/P2000N R19L/P2000N -SHSN FEW006 BKN010 02/M02 Q1013 RMK 1ST006 7ST010 A2993
RJCC 230705Z 16017KT 4900 -SHSN FEW010 BKN015 02/M03 Q1013 RMK 1ST010 7ST015 A2993
RJCC 230700Z 16016KT 9999 -SHSN FEW010 BKN025 02/M03 Q1013 RMK 1ST010 7CU025 A2992 3500SW-NW
RJCC 230630Z 16016KT 9999 -SHSN FEW010 BKN025 02/M03 Q1013 RMK 1ST010 7CU025 A2993 4000W-NW
RJCC 230600Z 16020KT 7000 -SHSN FEW010 BKN020 02/M03 Q1013 RMK 1ST010 7CU020 A2994
RJCC 230530Z 15020KT 9999 FEW010 SCT030 BKN/// 03/M03 Q1013
RJCC 230500Z 15017KT 9999 FEW010 BKN020 BKN/// 03/M03 Q1013
RJCC 230430Z 16017KT 9999 FEW010 SCT020 BKN/// 03/M03 Q1014
RJCC 230400Z 17019KT 9999 FEW010 BKN020 BKN040 03/M03 Q1014 RMK 1ST010 5CU020 6CU040 A2996
RJCC 230330Z 17019KT 9999 FEW010 BKN020 BKN050 02/M02 Q1014 RMK 1ST010 6CU020 7CU050 A2997
RJCC 230300Z 17018KT 9999 FEW010 BKN020 BKN050 02/M03 Q1015 RMK 1ST010 6CU020 7CU050 A2997
RJCC 230230Z 17017KT 9999 FEW010 BKN020 BKN/// 02/M03 Q1015
RJCC 230200Z 18018KT 9999 FEW015 BKN025 BKN/// 02/M04 Q1016
RJCC 230130Z 19016KT 9999 FEW015 BKN020 BKN/// 02/M03 Q1016
RJCC 230100Z 18012KT 9999 FEW015 BKN020 FEW035TCU BKN/// 02/M02 Q1016 RMK 1ST015 5CU020 2TCU035 A3002 TCU E-SE
RJCC 230030Z 20006KT 150V240 9999 FEW015 SCT040TCU BKN/// 02/M03 Q1016
RJCC 230000Z 33004KT 280V350 9999 FEW020 SCT040TCU BKN/// 00/M02 Q1017
RJCC 222330Z 19004KT 170V230 9999 FEW020 SCT040 BKN/// 01/M03 Q1017
RJCC 222300Z 16005KT 9999 FEW010 SCT020 BKN040 M01/M03 Q1017 RMK 1ST010 3CU020 6CU040 A3004
RJCC 222230Z 16008KT 9999 VCSH FEW010 SCT020 BKN025 M01/M03 Q1017 RMK 1ST010 4CU020 6CU025 A3004 SH NW
RJCC 222200Z 17007KT 9999 VCSH FEW010 BKN025 M01/M03 Q1017 RMK 1ST010 7CU025 A3005 SH NW
RJCC 222130Z 17013KT 8000 -SHSN FEW006 BKN010 M01/M02 Q1017 RMK 1ST006 6ST010 A3004 4000NW
RJCC 222100Z 17009KT 3200 -SHSN FEW005 BKN008 BKN010 M01/M02 Q1017 RMK 1ST005 5ST008 7ST010 A3004
RJCC 222047Z 19010KT 3200 -SHSN FEW004 BKN006 BKN010 M01/M02 Q1017 RMK 1ST004 5ST006 7ST010 A3005
RJCC 222030Z 19008KT 2500 R19R/P2000N R01R/2000N -SHSN FEW004 BKN005 M01/M02 Q1017
RJCC 222016Z 19009KT 0900 R19R/P2000N R01R/1500VP2000D SHSN FEW003 BKN004 M01/M02 Q1017 RMK 2ST003 7ST004 A3005
RJCC 222000Z 20010KT 170V230 1200 R19R/P2000N R01R/P2000N -SHSN FEW003 BKN004 BKN007 M01/M01 Q1017
RJCC 221930Z 17015KT 0300 R19R/0800V1900D R01R/0800V1300N SHSN VV003 M01/M02 Q1017
RJCC 221900Z 20011KT 0700 R19R/P2000N R01R/P2000N SHSN FEW003 BKN007 BKN010 M01/M02 Q1017
RJCC 221848Z 19015KT 0900 R19R/P2000N R19L/P2000N SHSN FEW008 BKN010 BKN020 M01/M03 Q1017 RMK 1ST008 5ST010 7CU020 A3005
RJCC 221830Z 16010KT 2500 -SHSN FEW008 SCT010 BKN020 M00/M05 Q1017 RMK 1ST008 4ST010 6CU020 A3005
RJCC 221800Z 17019KT 4000 -SHSN FEW010 BKN020 BKN030 M00/M04 Q1017 RMK 1ST010 5CU020 7CU030 A3005
RJCC 221730Z 15010KT 9999 -SHSN FEW010 SCT020 BKN030 M01/M04 Q1017 RMK 1ST010 4CU020 7CU030 A3005 5000NE-E
RJCC 221700Z 16010KT 8000 -SHSN FEW010 BKN020 BKN030 M00/M06 Q1017 RMK 1ST010 5CU020 7CU030 A3005
RJCC 221630Z 13009KT 9999 -SHSN FEW010 BKN030 M02/M05 Q1017 RMK 1ST010 7CU030 A3006 5000W-NW
RJCC 221600Z 12007KT 9999 -SHSN FEW010 SCT040 BKN060 M03/M05 Q1018 RMK 1ST010 3CU040 7CU060 A3007 5000W-NW
RJCC 221530Z 13007KT 9999 FEW010 BKN025 M03/M04 Q1018 RMK 2ST010 6CU025 A3008
RJCC 221500Z 14006KT 9999 -SHSN FEW010 SCT025 BKN050 M04/M04 Q1019 RMK 1ST010 3CU025 6CU050 A3009 5000NW-N
RJCC 221430Z 11006KT 2500 -SHSN FEW008 BKN010 BKN020 M03/M04 Q1019 RMK 1ST008 5ST010 6CU020 A3010
RJCC 221400Z 13007KT 2500 -SHSN FEW008 BKN010 M04/M05 Q1019 RMK 1ST008 6ST010 A3011
RJCC 221330Z 14006KT 9999 -SHSN FEW020 SCT040 BKN060 M04/M07 Q1019 RMK 1CU020 4CU040 6CU060 A3011
RJCC 221300Z 13004KT 9999 -SHSN FEW020 BKN040 M04/M07 Q1020 RMK 1CU020 6CU040 A3012
RJCC 221230Z 12006KT 9999 FEW020 BKN050 BKN070 M04/M07 Q1020 RMK 1CU020 5CU050 6AC070 A3012
RJCC 221200Z 15006KT 9999 FEW020 SCT050 BKN070 M03/M07 Q1020 RMK 1CU020 3CU050 6AC070 A3013
RJCC 221130Z 12007KT 9999 FEW020 SCT035 BKN080 M05/M09 Q1020 RMK 1CU020 3CU035 6AC080 A3013
RJCC 221100Z 13004KT 9999 FEW020 BKN035 M04/M09 Q1020 RMK 1CU020 5CU035 A3012
RJCC 221030Z 13005KT 9999 FEW020 SCT035 M04/M08 Q1020 RMK 1CU020 4CU035 A3012
RJCC 221000Z 13006KT 9999 FEW020 SCT035 M03/M08 Q1020 RMK 1CU020 4CU035 A3012
RJCC 220930Z 16007KT 9999 -SHSN FEW020 BKN035 M03/M08 Q1019 RMK 1CU020 6CU035 A3012
RJCC 220900Z 15007KT 9999 FEW025 BKN035 M03/M08 Q1019 RMK 1CU025 6CU035 A3010
RJCC 220830Z 19010KT 9999 FEW025 SCT035 M03/M09 Q1019 RMK 1CU025 3CU035 A3010
RJCC 220800Z 18009KT 9999 FEW030 M03/M11 Q1019 RMK 1CU030 A3009
RJCC 220730Z 19013KT 9999 FEW030 M02/M11 Q1019 RMK 1CU030 A3009
RJCC 220700Z 19011KT 9999 FEW030 M02/M12 Q1019 RMK 1CU030 A3009
RJCC 220630Z 19013KT 9999 FEW030 M01/M12 Q1019 RMK 1CU030 A3009
RJCC 220600Z 21012KT 9999 FEW030 M01/M12 Q1018 RMK 1CU030 A3009
RJCC 220530Z 21012KT 9999 FEW030 M01/M13 Q1018 RMK 1CU030 A3009
RJCC 220030Z 17007KT 9999 FEW030 BKN/// M07/M13 Q1020
RJCC 220000Z 17004KT 9999 FEW030 M10/M15 Q1020 RMK 1CU030 A3015
RJCC 212330Z 17004KT 9999 FEW030 M13/M17 Q1020 RMK 1CU030 A3014
RJCC 212300Z 17004KT 9999 FEW030 M17/M20 Q1020 RMK 1CU030 A3014
RJCC 212230Z 20004KT 9999 FEW030 M19/M22 Q1020 RMK 1CU030 A3014
RJCC 212200Z 19003KT 9999 FEW030 M20/M23 Q1020 RMK 1CU030 A3013
RJCC 212130Z VRB01KT 9999 FEW030 M21/M23 Q1020 RMK 1CU030 A3012
RJCC 212100Z 19003KT 9999 FEW020 M20/M23 Q1019 RMK 1CU020 A3011
RJCC 212030Z VRB02KT 9999 FEW020 M20/M23 Q1019 RMK 1CU020 A3011
RJCC 212000Z 17001KT 9999 FEW020 M19/M22 Q1019 RMK 1CU020 A3011
RJCC 211930Z VRB02KT 9999 FEW020 M19/M21 Q1019 RMK 1CU020 A3010
RJCC 211900Z VRB02KT 9999 FEW020 M21/M24 Q1019 RMK 1CU020 A3009
RJCC 211830Z 19003KT 160V230 9999 FEW020 M20/M22 Q1019 RMK 1CU020 A3010
RJCC 211800Z VRB01KT 9999 FEW020 M19/M22 Q1019 RMK 1CU020 A3009
RJCC 211730Z VRB01KT 9999 FEW020 M19/M21 Q1019 RMK 1CU020 A3009
RJCC 211700Z 18002KT 9999 FEW020 M19/M20 Q1019 RMK 1CU020 A3009
RJCC 211630Z 19002KT 9999 FEW020 M18/M19 Q1018 RMK 1CU020 A3008
RJCC 211600Z 15001KT 9999 FEW020 M17/M18 Q1018 RMK 1CU020 A3007
RJCC 211430Z 35001KT 9999 FEW020 M16/M19 Q1017 RMK 1CU020 A3005
RJCC 211330Z VRB02KT 9999 FEW025 M13/M16 Q1017 RMK 1CU025 A3005
RJCC 211300Z VRB02KT 9999 FEW025 M14/M16 Q1017 RMK 1CU025 A3005